Pound, Wisconsin
Current Conditions -  °F | °C
As of 5:15 AM on Sunday 23 Nov 2014 (Local Time) from KOCQ Reporting Station
Overcast Overcast  
Wind Chill: 37°   Ceiling: 300
Heat Index: 42°   Visibility: 1.7mi
Dew Point: 42°   Wind: 8mph
Humidity: 100%   Direction: 170°S
Pressure: 29.64"   Gusts: NA
Location:  45.09°N, 88.03°W
Report Text: KOCQ 231115Z AUTO 17007KT 1 3/4SM OVC003 06/06 A2964 RMK AO1 T00560056
Loading
Personal Weather Stations






























Interactive Weather Map New forecast layout! Learn more

10-Day Weather Forecast

Advertisements
Track Severe Weather on mobile